sensor_id;sensor_type;location;lat;lon;timestamp;P1;durP1;ratioP1;P2;durP2;ratioP2
22786;SDS011;63134;52.020;4.714;2023-05-10T00:02:14;203.18;;;68.32;;
22786;SDS011;63134;52.020;4.714;2023-05-10T00:04:59;190.02;;;66.75;;
22786;SDS011;63134;52.020;4.714;2023-05-10T00:07:45;203.30;;;66.57;;
22786;SDS011;63134;52.020;4.714;2023-05-10T00:10:33;200.73;;;67.10;;
22786;SDS011;63134;52.020;4.714;2023-05-10T00:13:19;207.27;;;67.70;;
22786;SDS011;63134;52.020;4.714;2023-05-10T00:16:04;199.38;;;67.22;;
22786;SDS011;63134;52.020;4.714;2023-05-10T00:18:50;194.55;;;65.53;;
22786;SDS011;63134;52.020;4.714;2023-05-10T00:21:35;199.98;;;68.15;;
22786;SDS011;63134;52.020;4.714;2023-05-10T00:24:22;214.82;;;68.18;;
22786;SDS011;63134;52.020;4.714;2023-05-10T00:27:08;208.35;;;66.75;;
22786;SDS011;63134;52.020;4.714;2023-05-10T00:29:53;199.05;;;65.70;;
22786;SDS011;63134;52.020;4.714;2023-05-10T00:32:40;224.15;;;69.07;;
22786;SDS011;63134;52.020;4.714;2023-05-10T00:35:26;217.88;;;68.20;;
22786;SDS011;63134;52.020;4.714;2023-05-10T00:38:11;205.98;;;68.40;;
22786;SDS011;63134;52.020;4.714;2023-05-10T00:40:57;230.80;;;70.65;;
22786;SDS011;63134;52.020;4.714;2023-05-10T00:43:47;219.55;;;68.25;;
22786;SDS011;63134;52.020;4.714;2023-05-10T00:46:34;239.82;;;69.95;;
22786;SDS011;63134;52.020;4.714;2023-05-10T00:49:20;245.85;;;71.90;;
22786;SDS011;63134;52.020;4.714;2023-05-10T00:52:08;273.73;;;73.75;;
22786;SDS011;63134;52.020;4.714;2023-05-10T00:54:55;279.60;;;78.70;;
22786;SDS011;63134;52.020;4.714;2023-05-10T00:57:41;267.50;;;75.78;;
22786;SDS011;63134;52.020;4.714;2023-05-10T01:00:27;288.45;;;79.53;;
22786;SDS011;63134;52.020;4.714;2023-05-10T01:03:14;246.65;;;73.90;;
22786;SDS011;63134;52.020;4.714;2023-05-10T01:06:00;296.98;;;83.72;;
22786;SDS011;63134;52.020;4.714;2023-05-10T01:08:45;282.80;;;81.53;;
22786;SDS011;63134;52.020;4.714;2023-05-10T01:11:34;290.58;;;81.15;;
22786;SDS011;63134;52.020;4.714;2023-05-10T01:14:22;292.90;;;83.72;;
22786;SDS011;63134;52.020;4.714;2023-05-10T01:17:08;275.58;;;79.13;;
22786;SDS011;63134;52.020;4.714;2023-05-10T01:19:55;303.08;;;83.07;;
22786;SDS011;63134;52.020;4.714;2023-05-10T01:22:45;298.70;;;84.57;;
22786;SDS011;63134;52.020;4.714;2023-05-10T01:36:13;284.73;;;81.15;;
22786;SDS011;63134;52.020;4.714;2023-05-10T01:42:43;279.60;;;79.40;;
22786;SDS011;63134;52.020;4.714;2023-05-10T01:45:26;293.58;;;81.22;;
22786;SDS011;63134;52.020;4.714;2023-05-10T01:48:20;268.70;;;77.85;;
22786;SDS011;63134;52.020;4.714;2023-05-10T01:51:07;290.00;;;76.57;;
22786;SDS011;63134;52.020;4.714;2023-05-10T01:53:58;278.45;;;76.10;;
22786;SDS011;63134;52.020;4.714;2023-05-10T01:56:50;304.17;;;78.78;;
22786;SDS011;63134;52.020;4.714;2023-05-10T01:59:41;253.27;;;72.65;;
22786;SDS011;63134;52.020;4.714;2023-05-10T02:02:32;246.57;;;70.55;;
22786;SDS011;63134;52.020;4.714;2023-05-10T02:05:22;225.20;;;67.63;;
22786;SDS011;63134;52.020;4.714;2023-05-10T02:08:09;208.40;;;63.38;;
22786;SDS011;63134;52.020;4.714;2023-05-10T02:10:55;183.25;;;62.15;;
22786;SDS011;63134;52.020;4.714;2023-05-10T02:13:45;196.80;;;65.63;;
22786;SDS011;63134;52.020;4.714;2023-05-10T02:16:34;191.20;;;64.90;;
22786;SDS011;63134;52.020;4.714;2023-05-10T02:19:21;167.65;;;61.15;;
22786;SDS011;63134;52.020;4.714;2023-05-10T02:22:09;159.30;;;60.60;;
22786;SDS011;63134;52.020;4.714;2023-05-10T02:24:55;180.65;;;67.13;;
22786;SDS011;63134;52.020;4.714;2023-05-10T02:27:45;176.63;;;63.47;;
22786;SDS011;63134;52.020;4.714;2023-05-10T02:30:32;168.00;;;63.85;;
22786;SDS011;63134;52.020;4.714;2023-05-10T02:33:19;150.35;;;61.47;;
22786;SDS011;63134;52.020;4.714;2023-05-10T02:36:09;167.57;;;62.50;;
22786;SDS011;63134;52.020;4.714;2023-05-10T02:38:55;155.77;;;62.08;;
22786;SDS011;63134;52.020;4.714;2023-05-10T02:41:42;157.60;;;62.70;;
22786;SDS011;63134;52.020;4.714;2023-05-10T02:44:31;166.75;;;69.30;;
22786;SDS011;63134;52.020;4.714;2023-05-10T02:47:20;168.52;;;67.13;;
22786;SDS011;63134;52.020;4.714;2023-05-10T02:50:06;180.20;;;71.50;;
22786;SDS011;63134;52.020;4.714;2023-05-10T02:52:52;165.75;;;68.10;;
22786;SDS011;63134;52.020;4.714;2023-05-10T02:55:42;174.48;;;69.28;;
22786;SDS011;63134;52.020;4.714;2023-05-10T02:58:30;145.02;;;61.35;;
22786;SDS011;63134;52.020;4.714;2023-05-10T03:01:15;153.63;;;62.50;;
22786;SDS011;63134;52.020;4.714;2023-05-10T03:04:01;152.93;;;60.83;;
22786;SDS011;63134;52.020;4.714;2023-05-10T03:06:47;136.65;;;56.40;;
22786;SDS011;63134;52.020;4.714;2023-05-10T03:09:34;146.23;;;61.08;;
22786;SDS011;63134;52.020;4.714;2023-05-10T03:18:37;111.55;;;45.60;;
22786;SDS011;63134;52.020;4.714;2023-05-10T03:21:29;113.15;;;49.83;;
22786;SDS011;63134;52.020;4.714;2023-05-10T03:24:18;111.43;;;53.03;;
22786;SDS011;63134;52.020;4.714;2023-05-10T03:27:06;120.97;;;50.80;;
22786;SDS011;63134;52.020;4.714;2023-05-10T03:29:55;109.15;;;48.55;;
22786;SDS011;63134;52.020;4.714;2023-05-10T03:32:45;119.80;;;53.10;;
22786;SDS011;63134;52.020;4.714;2023-05-10T03:35:33;126.35;;;55.28;;
22786;SDS011;63134;52.020;4.714;2023-05-10T03:38:19;140.60;;;61.30;;
22786;SDS011;63134;52.020;4.714;2023-05-10T03:41:05;140.88;;;61.13;;
22786;SDS011;63134;52.020;4.714;2023-05-10T03:43:50;136.13;;;58.03;;
22786;SDS011;63134;52.020;4.714;2023-05-10T03:46:36;133.05;;;57.22;;
22786;SDS011;63134;52.020;4.714;2023-05-10T03:49:22;125.50;;;53.60;;
22786;SDS011;63134;52.020;4.714;2023-05-10T03:52:07;120.35;;;51.22;;
22786;SDS011;63134;52.020;4.714;2023-05-10T03:54:53;127.40;;;52.92;;
22786;SDS011;63134;52.020;4.714;2023-05-10T03:57:39;134.45;;;56.13;;
22786;SDS011;63134;52.020;4.714;2023-05-10T04:00:25;131.65;;;59.78;;
22786;SDS011;63134;52.020;4.714;2023-05-10T04:03:12;140.88;;;64.05;;
22786;SDS011;63134;52.020;4.714;2023-05-10T04:06:01;155.85;;;69.88;;
22786;SDS011;63134;52.020;4.714;2023-05-10T04:08:47;140.65;;;68.40;;
22786;SDS011;63134;52.020;4.714;2023-05-10T04:11:33;146.32;;;67.72;;
22786;SDS011;63134;52.020;4.714;2023-05-10T04:14:18;129.50;;;66.68;;
22786;SDS011;63134;52.020;4.714;2023-05-10T04:17:04;98.05;;;45.88;;
22786;SDS011;63134;52.020;4.714;2023-05-10T04:19:50;94.40;;;50.78;;
22786;SDS011;63134;52.020;4.714;2023-05-10T04:22:37;88.43;;;46.38;;
22786;SDS011;63134;52.020;4.714;2023-05-10T04:25:23;90.80;;;49.83;;
22786;SDS011;63134;52.020;4.714;2023-05-10T04:28:08;103.20;;;54.00;;
22786;SDS011;63134;52.020;4.714;2023-05-10T04:31:00;106.72;;;60.22;;
22786;SDS011;63134;52.020;4.714;2023-05-10T04:33:49;135.98;;;68.95;;
22786;SDS011;63134;52.020;4.714;2023-05-10T04:36:35;144.55;;;73.57;;
22786;SDS011;63134;52.020;4.714;2023-05-10T04:39:21;142.23;;;73.22;;
22786;SDS011;63134;52.020;4.714;2023-05-10T04:42:07;128.32;;;70.78;;
22786;SDS011;63134;52.020;4.714;2023-05-10T04:44:52;138.93;;;72.40;;
22786;SDS011;63134;52.020;4.714;2023-05-10T04:47:38;119.82;;;70.70;;
22786;SDS011;63134;52.020;4.714;2023-05-10T04:50:23;114.30;;;67.07;;
22786;SDS011;63134;52.020;4.714;2023-05-10T04:53:09;113.07;;;65.57;;
22786;SDS011;63134;52.020;4.714;2023-05-10T04:55:54;74.40;;;44.17;;
22786;SDS011;63134;52.020;4.714;2023-05-10T04:58:40;74.45;;;45.90;;
22786;SDS011;63134;52.020;4.714;2023-05-10T05:01:26;65.20;;;42.25;;
22786;SDS011;63134;52.020;4.714;2023-05-10T05:04:11;63.95;;;38.25;;
22786;SDS011;63134;52.020;4.714;2023-05-10T05:06:57;75.95;;;42.88;;
22786;SDS011;63134;52.020;4.714;2023-05-10T05:09:42;68.97;;;38.53;;
22786;SDS011;63134;52.020;4.714;2023-05-10T05:12:27;65.35;;;37.72;;
22786;SDS011;63134;52.020;4.714;2023-05-10T05:15:13;70.80;;;41.10;;
22786;SDS011;63134;52.020;4.714;2023-05-10T05:18:00;63.67;;;35.67;;
22786;SDS011;63134;52.020;4.714;2023-05-10T05:20:48;66.13;;;39.90;;
22786;SDS011;63134;52.020;4.714;2023-05-10T05:23:35;57.15;;;33.00;;
22786;SDS011;63134;52.020;4.714;2023-05-10T05:26:20;50.45;;;32.35;;
22786;SDS011;63134;52.020;4.714;2023-05-10T05:29:07;39.28;;;25.17;;
22786;SDS011;63134;52.020;4.714;2023-05-10T05:31:52;49.88;;;29.95;;
22786;SDS011;63134;52.020;4.714;2023-05-10T05:34:39;51.35;;;29.40;;
22786;SDS011;63134;52.020;4.714;2023-05-10T05:37:29;48.65;;;30.77;;
22786;SDS011;63134;52.020;4.714;2023-05-10T05:40:14;49.42;;;29.08;;
22786;SDS011;63134;52.020;4.714;2023-05-10T05:43:00;44.50;;;27.48;;
22786;SDS011;63134;52.020;4.714;2023-05-10T05:45:47;44.35;;;27.73;;
22786;SDS011;63134;52.020;4.714;2023-05-10T05:48:32;49.35;;;30.08;;
22786;SDS011;63134;52.020;4.714;2023-05-10T05:51:18;37.35;;;23.42;;
22786;SDS011;63134;52.020;4.714;2023-05-10T05:54:03;39.88;;;24.52;;
22786;SDS011;63134;52.020;4.714;2023-05-10T05:56:49;45.22;;;24.42;;
22786;SDS011;63134;52.020;4.714;2023-05-10T05:59:37;41.67;;;26.00;;
22786;SDS011;63134;52.020;4.714;2023-05-10T06:02:28;44.50;;;26.92;;
22786;SDS011;63134;52.020;4.714;2023-05-10T06:05:14;46.13;;;26.33;;
22786;SDS011;63134;52.020;4.714;2023-05-10T06:08:00;51.97;;;25.58;;
22786;SDS011;63134;52.020;4.714;2023-05-10T06:10:45;42.15;;;23.67;;
22786;SDS011;63134;52.020;4.714;2023-05-10T06:13:31;35.80;;;21.48;;
22786;SDS011;63134;52.020;4.714;2023-05-10T06:16:18;31.20;;;19.92;;
22786;SDS011;63134;52.020;4.714;2023-05-10T06:19:03;40.53;;;22.20;;
22786;SDS011;63134;52.020;4.714;2023-05-10T06:21:49;35.83;;;20.50;;
22786;SDS011;63134;52.020;4.714;2023-05-10T06:24:37;32.50;;;19.95;;
22786;SDS011;63134;52.020;4.714;2023-05-10T06:27:22;32.30;;;19.73;;
22786;SDS011;63134;52.020;4.714;2023-05-10T06:30:09;27.77;;;17.92;;
22786;SDS011;63134;52.020;4.714;2023-05-10T06:32:57;21.23;;;14.35;;
22786;SDS011;63134;52.020;4.714;2023-05-10T06:35:43;20.20;;;14.15;;
22786;SDS011;63134;52.020;4.714;2023-05-10T06:38:28;19.98;;;12.85;;
22786;SDS011;63134;52.020;4.714;2023-05-10T06:41:14;17.48;;;12.80;;
22786;SDS011;63134;52.020;4.714;2023-05-10T06:44:00;15.68;;;11.45;;
22786;SDS011;63134;52.020;4.714;2023-05-10T06:46:48;14.68;;;10.38;;
22786;SDS011;63134;52.020;4.714;2023-05-10T06:49:36;11.45;;;9.85;;
22786;SDS011;63134;52.020;4.714;2023-05-10T06:52:22;15.98;;;9.30;;
22786;SDS011;63134;52.020;4.714;2023-05-10T06:55:08;12.35;;;8.70;;
22786;SDS011;63134;52.020;4.714;2023-05-10T06:57:53;10.95;;;8.70;;
22786;SDS011;63134;52.020;4.714;2023-05-10T07:00:39;11.02;;;8.63;;
22786;SDS011;63134;52.020;4.714;2023-05-10T07:03:27;8.23;;;7.15;;
22786;SDS011;63134;52.020;4.714;2023-05-10T07:06:13;7.93;;;7.13;;
22786;SDS011;63134;52.020;4.714;2023-05-10T07:09:16;13.30;;;7.63;;
22786;SDS011;63134;52.020;4.714;2023-05-10T07:12:02;8.80;;;8.00;;
22786;SDS011;63134;52.020;4.714;2023-05-10T07:14:47;10.05;;;7.82;;
22786;SDS011;63134;52.020;4.714;2023-05-10T07:17:33;8.93;;;7.97;;
22786;SDS011;63134;52.020;4.714;2023-05-10T07:20:19;8.60;;;7.25;;
22786;SDS011;63134;52.020;4.714;2023-05-10T07:23:04;9.90;;;7.63;;
22786;SDS011;63134;52.020;4.714;2023-05-10T07:25:50;8.32;;;6.82;;
22786;SDS011;63134;52.020;4.714;2023-05-10T07:28:38;8.10;;;7.30;;
22786;SDS011;63134;52.020;4.714;2023-05-10T07:31:24;7.32;;;6.53;;
22786;SDS011;63134;52.020;4.714;2023-05-10T07:34:09;7.28;;;6.53;;
22786;SDS011;63134;52.020;4.714;2023-05-10T07:36:56;7.25;;;5.82;;
22786;SDS011;63134;52.020;4.714;2023-05-10T07:39:42;9.05;;;6.22;;
22786;SDS011;63134;52.020;4.714;2023-05-10T07:42:28;24.90;;;7.63;;
22786;SDS011;63134;52.020;4.714;2023-05-10T07:45:13;8.68;;;6.40;;
22786;SDS011;63134;52.020;4.714;2023-05-10T07:48:03;9.05;;;6.35;;
22786;SDS011;63134;52.020;4.714;2023-05-10T07:50:49;9.65;;;6.80;;
22786;SDS011;63134;52.020;4.714;2023-05-10T07:53:34;7.20;;;5.72;;
22786;SDS011;63134;52.020;4.714;2023-05-10T07:56:21;6.30;;;5.18;;
22786;SDS011;63134;52.020;4.714;2023-05-10T07:59:07;7.88;;;5.40;;
22786;SDS011;63134;52.020;4.714;2023-05-10T08:01:59;6.25;;;5.32;;
22786;SDS011;63134;52.020;4.714;2023-05-10T08:04:45;5.40;;;4.90;;
22786;SDS011;63134;52.020;4.714;2023-05-10T08:07:31;7.13;;;5.70;;
22786;SDS011;63134;52.020;4.714;2023-05-10T08:10:17;7.90;;;5.63;;
22786;SDS011;63134;52.020;4.714;2023-05-10T08:13:03;10.77;;;6.93;;
22786;SDS011;63134;52.020;4.714;2023-05-10T08:15:49;8.35;;;6.68;;
22786;SDS011;63134;52.020;4.714;2023-05-10T08:18:37;8.60;;;6.43;;
22786;SDS011;63134;52.020;4.714;2023-05-10T08:21:23;8.65;;;5.95;;
22786;SDS011;63134;52.020;4.714;2023-05-10T08:24:13;8.10;;;5.25;;
22786;SDS011;63134;52.020;4.714;2023-05-10T08:26:59;6.13;;;5.15;;
22786;SDS011;63134;52.020;4.714;2023-05-10T08:29:44;8.73;;;5.75;;
22786;SDS011;63134;52.020;4.714;2023-05-10T08:32:34;6.85;;;5.55;;
22786;SDS011;63134;52.020;4.714;2023-05-10T08:35:20;6.72;;;5.20;;
22786;SDS011;63134;52.020;4.714;2023-05-10T08:38:05;11.40;;;7.28;;
22786;SDS011;63134;52.020;4.714;2023-05-10T08:40:51;10.73;;;7.07;;
22786;SDS011;63134;52.020;4.714;2023-05-10T08:43:41;20.20;;;7.63;;
22786;SDS011;63134;52.020;4.714;2023-05-10T08:46:30;14.32;;;7.05;;
22786;SDS011;63134;52.020;4.714;2023-05-10T08:49:20;11.35;;;7.68;;
22786;SDS011;63134;52.020;4.714;2023-05-10T08:52:07;13.35;;;7.93;;
22786;SDS011;63134;52.020;4.714;2023-05-10T08:54:58;8.60;;;7.70;;
22786;SDS011;63134;52.020;4.714;2023-05-10T08:57:43;15.35;;;7.22;;
22786;SDS011;63134;52.020;4.714;2023-05-10T09:00:29;12.43;;;7.32;;
22786;SDS011;63134;52.020;4.714;2023-05-10T09:03:15;9.75;;;7.32;;
22786;SDS011;63134;52.020;4.714;2023-05-10T09:06:01;10.98;;;6.55;;
22786;SDS011;63134;52.020;4.714;2023-05-10T09:08:47;10.68;;;7.80;;
22786;SDS011;63134;52.020;4.714;2023-05-10T09:11:33;11.18;;;7.63;;
22786;SDS011;63134;52.020;4.714;2023-05-10T09:14:27;11.70;;;7.53;;
22786;SDS011;63134;52.020;4.714;2023-05-10T09:17:13;13.23;;;7.90;;
22786;SDS011;63134;52.020;4.714;2023-05-10T09:19:59;11.30;;;7.55;;
22786;SDS011;63134;52.020;4.714;2023-05-10T09:22:45;12.75;;;7.47;;
22786;SDS011;63134;52.020;4.714;2023-05-10T09:25:30;13.95;;;7.60;;
22786;SDS011;63134;52.020;4.714;2023-05-10T09:28:18;11.82;;;7.22;;
22786;SDS011;63134;52.020;4.714;2023-05-10T09:31:06;14.52;;;7.68;;
22786;SDS011;63134;52.020;4.714;2023-05-10T09:33:53;11.27;;;7.00;;
22786;SDS011;63134;52.020;4.714;2023-05-10T09:36:49;10.27;;;7.13;;
22786;SDS011;63134;52.020;4.714;2023-05-10T09:39:44;9.98;;;6.60;;
22786;SDS011;63134;52.020;4.714;2023-05-10T09:42:29;10.55;;;6.55;;
22786;SDS011;63134;52.020;4.714;2023-05-10T09:45:15;9.95;;;6.60;;
22786;SDS011;63134;52.020;4.714;2023-05-10T09:48:02;11.10;;;5.90;;
22786;SDS011;63134;52.020;4.714;2023-05-10T09:50:55;8.38;;;6.32;;
22786;SDS011;63134;52.020;4.714;2023-05-10T09:53:41;10.65;;;7.00;;
22786;SDS011;63134;52.020;4.714;2023-05-10T09:56:33;9.40;;;7.30;;
22786;SDS011;63134;52.020;4.714;2023-05-10T09:59:20;10.88;;;7.13;;
22786;SDS011;63134;52.020;4.714;2023-05-10T10:02:06;10.32;;;6.88;;
22786;SDS011;63134;52.020;4.714;2023-05-10T10:04:52;7.15;;;5.45;;
22786;SDS011;63134;52.020;4.714;2023-05-10T10:07:38;9.82;;;5.50;;
22786;SDS011;63134;52.020;4.714;2023-05-10T10:10:24;9.60;;;5.07;;
22786;SDS011;63134;52.020;4.714;2023-05-10T10:13:10;9.23;;;5.60;;
22786;SDS011;63134;52.020;4.714;2023-05-10T10:15:57;8.45;;;5.55;;
22786;SDS011;63134;52.020;4.714;2023-05-10T10:18:43;11.23;;;6.35;;
22786;SDS011;63134;52.020;4.714;2023-05-10T10:21:28;7.43;;;6.15;;
22786;SDS011;63134;52.020;4.714;2023-05-10T10:24:14;11.30;;;6.38;;
22786;SDS011;63134;52.020;4.714;2023-05-10T10:27:04;8.30;;;6.22;;
22786;SDS011;63134;52.020;4.714;2023-05-10T10:36:12;6.80;;;5.90;;
22786;SDS011;63134;52.020;4.714;2023-05-10T10:39:00;8.18;;;6.10;;
22786;SDS011;63134;52.020;4.714;2023-05-10T10:41:51;10.07;;;6.60;;
22786;SDS011;63134;52.020;4.714;2023-05-10T10:44:38;10.80;;;6.47;;
22786;SDS011;63134;52.020;4.714;2023-05-10T10:47:25;9.32;;;6.47;;
22786;SDS011;63134;52.020;4.714;2023-05-10T10:50:17;7.28;;;5.80;;
22786;SDS011;63134;52.020;4.714;2023-05-10T10:53:10;7.57;;;4.93;;
22786;SDS011;63134;52.020;4.714;2023-05-10T10:56:02;6.03;;;5.43;;
22786;SDS011;63134;52.020;4.714;2023-05-10T10:58:56;6.15;;;5.35;;
22786;SDS011;63134;52.020;4.714;2023-05-10T11:01:44;8.73;;;5.80;;
22786;SDS011;63134;52.020;4.714;2023-05-10T11:04:43;8.23;;;5.28;;
22786;SDS011;63134;52.020;4.714;2023-05-10T11:07:31;17.83;;;8.82;;
22786;SDS011;63134;52.020;4.714;2023-05-10T11:10:19;15.30;;;8.73;;
22786;SDS011;63134;52.020;4.714;2023-05-10T11:13:08;19.20;;;10.02;;
22786;SDS011;63134;52.020;4.714;2023-05-10T11:15:54;17.20;;;10.27;;
22786;SDS011;63134;52.020;4.714;2023-05-10T11:18:51;13.70;;;8.82;;
22786;SDS011;63134;52.020;4.714;2023-05-10T11:24:32;16.45;;;9.68;;
22786;SDS011;63134;52.020;4.714;2023-05-10T11:27:18;15.15;;;9.43;;
22786;SDS011;63134;52.020;4.714;2023-05-10T11:30:05;12.68;;;8.90;;
22786;SDS011;63134;52.020;4.714;2023-05-10T11:32:52;11.30;;;7.50;;
22786;SDS011;63134;52.020;4.714;2023-05-10T11:35:38;11.32;;;8.07;;
22786;SDS011;63134;52.020;4.714;2023-05-10T11:38:27;11.00;;;7.65;;
22786;SDS011;63134;52.020;4.714;2023-05-10T11:41:13;9.18;;;7.38;;
22786;SDS011;63134;52.020;4.714;2023-05-10T11:44:00;9.93;;;6.93;;
22786;SDS011;63134;52.020;4.714;2023-05-10T11:46:49;13.95;;;8.50;;
22786;SDS011;63134;52.020;4.714;2023-05-10T11:49:35;9.70;;;6.60;;
22786;SDS011;63134;52.020;4.714;2023-05-10T11:52:20;9.77;;;7.15;;
22786;SDS011;63134;52.020;4.714;2023-05-10T11:55:06;13.38;;;7.95;;
22786;SDS011;63134;52.020;4.714;2023-05-10T11:57:53;13.07;;;8.55;;
22786;SDS011;63134;52.020;4.714;2023-05-10T12:00:39;13.98;;;8.32;;
22786;SDS011;63134;52.020;4.714;2023-05-10T12:03:25;15.43;;;9.48;;
22786;SDS011;63134;52.020;4.714;2023-05-10T12:06:11;15.82;;;10.13;;
22786;SDS011;63134;52.020;4.714;2023-05-10T12:08:57;11.63;;;8.50;;
22786;SDS011;63134;52.020;4.714;2023-05-10T12:11:43;11.15;;;7.75;;
22786;SDS011;63134;52.020;4.714;2023-05-10T12:14:29;9.45;;;7.70;;
22786;SDS011;63134;52.020;4.714;2023-05-10T12:17:20;9.77;;;7.50;;
22786;SDS011;63134;52.020;4.714;2023-05-10T12:20:12;9.93;;;6.95;;
22786;SDS011;63134;52.020;4.714;2023-05-10T12:23:09;9.05;;;6.97;;
22786;SDS011;63134;52.020;4.714;2023-05-10T12:26:01;12.30;;;6.60;;
22786;SDS011;63134;52.020;4.714;2023-05-10T12:28:49;9.75;;;5.85;;
22786;SDS011;63134;52.020;4.714;2023-05-10T12:31:48;8.52;;;5.50;;
22786;SDS011;63134;52.020;4.714;2023-05-10T12:34:42;10.90;;;6.25;;
22786;SDS011;63134;52.020;4.714;2023-05-10T12:37:27;10.65;;;6.53;;
22786;SDS011;63134;52.020;4.714;2023-05-10T12:40:14;10.77;;;7.25;;
22786;SDS011;63134;52.020;4.714;2023-05-10T12:43:00;12.07;;;7.88;;
22786;SDS011;63134;52.020;4.714;2023-05-10T12:45:46;9.05;;;6.13;;
22786;SDS011;63134;52.020;4.714;2023-05-10T12:48:34;12.10;;;7.20;;
22786;SDS011;63134;52.020;4.714;2023-05-10T12:51:20;8.32;;;6.20;;
22786;SDS011;63134;52.020;4.714;2023-05-10T12:54:07;9.70;;;6.43;;
22786;SDS011;63134;52.020;4.714;2023-05-10T12:56:52;12.10;;;5.47;;
22786;SDS011;63134;52.020;4.714;2023-05-10T12:59:38;6.93;;;4.70;;
22786;SDS011;63134;52.020;4.714;2023-05-10T13:02:23;7.43;;;5.38;;
22786;SDS011;63134;52.020;4.714;2023-05-10T13:05:09;8.55;;;5.93;;
22786;SDS011;63134;52.020;4.714;2023-05-10T13:07:54;10.30;;;6.40;;
22786;SDS011;63134;52.020;4.714;2023-05-10T13:10:40;8.18;;;6.25;;
22786;SDS011;63134;52.020;4.714;2023-05-10T13:13:25;8.05;;;5.65;;
22786;SDS011;63134;52.020;4.714;2023-05-10T13:16:11;10.40;;;6.43;;
22786;SDS011;63134;52.020;4.714;2023-05-10T13:18:59;12.07;;;7.25;;
22786;SDS011;63134;52.020;4.714;2023-05-10T13:21:46;10.75;;;7.45;;
22786;SDS011;63134;52.020;4.714;2023-05-10T13:24:32;13.23;;;7.82;;
22786;SDS011;63134;52.020;4.714;2023-05-10T13:27:20;11.63;;;7.90;;
22786;SDS011;63134;52.020;4.714;2023-05-10T13:30:06;14.35;;;8.80;;
22786;SDS011;63134;52.020;4.714;2023-05-10T13:32:52;13.52;;;9.18;;
22786;SDS011;63134;52.020;4.714;2023-05-10T13:35:38;13.20;;;7.97;;
22786;SDS011;63134;52.020;4.714;2023-05-10T13:38:24;13.88;;;8.95;;
22786;SDS011;63134;52.020;4.714;2023-05-10T13:41:11;11.45;;;8.48;;
22786;SDS011;63134;52.020;4.714;2023-05-10T13:43:56;11.98;;;8.15;;
22786;SDS011;63134;52.020;4.714;2023-05-10T13:46:41;14.70;;;8.75;;
22786;SDS011;63134;52.020;4.714;2023-05-10T13:49:27;12.48;;;7.82;;
22786;SDS011;63134;52.020;4.714;2023-05-10T13:52:13;9.75;;;7.88;;
22786;SDS011;63134;52.020;4.714;2023-05-10T13:54:58;7.40;;;6.00;;
22786;SDS011;63134;52.020;4.714;2023-05-10T13:57:45;11.48;;;6.53;;
22786;SDS011;63134;52.020;4.714;2023-05-10T14:00:37;13.25;;;7.10;;
22786;SDS011;63134;52.020;4.714;2023-05-10T14:03:23;8.88;;;6.43;;
22786;SDS011;63134;52.020;4.714;2023-05-10T14:06:09;9.65;;;5.80;;
22786;SDS011;63134;52.020;4.714;2023-05-10T14:08:54;7.40;;;5.10;;
22786;SDS011;63134;52.020;4.714;2023-05-10T14:11:40;9.07;;;4.93;;
22786;SDS011;63134;52.020;4.714;2023-05-10T14:14:28;10.00;;;5.85;;
22786;SDS011;63134;52.020;4.714;2023-05-10T14:17:14;10.45;;;6.57;;
22786;SDS011;63134;52.020;4.714;2023-05-10T14:20:00;8.45;;;5.53;;
22786;SDS011;63134;52.020;4.714;2023-05-10T14:22:47;7.57;;;5.25;;
22786;SDS011;63134;52.020;4.714;2023-05-10T14:25:32;8.52;;;6.07;;
22786;SDS011;63134;52.020;4.714;2023-05-10T14:28:19;8.20;;;5.43;;
22786;SDS011;63134;52.020;4.714;2023-05-10T14:31:06;7.15;;;5.30;;
22786;SDS011;63134;52.020;4.714;2023-05-10T14:33:51;5.93;;;4.75;;
22786;SDS011;63134;52.020;4.714;2023-05-10T14:36:37;7.72;;;5.22;;
22786;SDS011;63134;52.020;4.714;2023-05-10T14:39:23;6.15;;;4.82;;
22786;SDS011;63134;52.020;4.714;2023-05-10T14:42:08;5.53;;;4.50;;
22786;SDS011;63134;52.020;4.714;2023-05-10T14:44:54;5.18;;;4.38;;
22786;SDS011;63134;52.020;4.714;2023-05-10T14:47:40;5.40;;;4.50;;
22786;SDS011;63134;52.020;4.714;2023-05-10T14:50:25;6.03;;;4.75;;
22786;SDS011;63134;52.020;4.714;2023-05-10T14:53:21;6.50;;;4.85;;
22786;SDS011;63134;52.020;4.714;2023-05-10T14:56:06;5.47;;;4.80;;
22786;SDS011;63134;52.020;4.714;2023-05-10T14:58:52;6.32;;;4.20;;
22786;SDS011;63134;52.020;4.714;2023-05-10T15:01:38;5.38;;;4.05;;
22786;SDS011;63134;52.020;4.714;2023-05-10T15:04:27;4.90;;;4.40;;
22786;SDS011;63134;52.020;4.714;2023-05-10T15:07:13;5.45;;;3.47;;
22786;SDS011;63134;52.020;4.714;2023-05-10T15:10:01;5.25;;;4.38;;
22786;SDS011;63134;52.020;4.714;2023-05-10T15:12:47;6.90;;;4.30;;
22786;SDS011;63134;52.020;4.714;2023-05-10T15:15:35;9.10;;;4.22;;
22786;SDS011;63134;52.020;4.714;2023-05-10T15:18:21;8.13;;;4.65;;
22786;SDS011;63134;52.020;4.714;2023-05-10T15:21:08;5.95;;;4.35;;
22786;SDS011;63134;52.020;4.714;2023-05-10T15:23:54;4.95;;;3.90;;
22786;SDS011;63134;52.020;4.714;2023-05-10T15:26:39;6.38;;;4.03;;
22786;SDS011;63134;52.020;4.714;2023-05-10T15:29:25;7.82;;;3.97;;
22786;SDS011;63134;52.020;4.714;2023-05-10T15:32:11;7.55;;;3.90;;
22786;SDS011;63134;52.020;4.714;2023-05-10T15:34:56;6.68;;;4.28;;
22786;SDS011;63134;52.020;4.714;2023-05-10T15:37:42;7.32;;;4.05;;
22786;SDS011;63134;52.020;4.714;2023-05-10T15:40:28;5.43;;;4.05;;
22786;SDS011;63134;52.020;4.714;2023-05-10T15:43:14;4.53;;;4.00;;
22786;SDS011;63134;52.020;4.714;2023-05-10T15:46:00;5.20;;;4.10;;
22786;SDS011;63134;52.020;4.714;2023-05-10T15:48:46;6.07;;;4.25;;
22786;SDS011;63134;52.020;4.714;2023-05-10T15:51:32;7.30;;;4.65;;
22786;SDS011;63134;52.020;4.714;2023-05-10T15:54:20;8.27;;;4.75;;
22786;SDS011;63134;52.020;4.714;2023-05-10T15:57:06;6.75;;;4.43;;
22786;SDS011;63134;52.020;4.714;2023-05-10T15:59:52;10.55;;;4.88;;
22786;SDS011;63134;52.020;4.714;2023-05-10T16:02:40;6.53;;;4.45;;
22786;SDS011;63134;52.020;4.714;2023-05-10T16:05:27;6.88;;;4.45;;
22786;SDS011;63134;52.020;4.714;2023-05-10T16:08:16;5.55;;;4.88;;
22786;SDS011;63134;52.020;4.714;2023-05-10T16:11:02;6.30;;;4.80;;
22786;SDS011;63134;52.020;4.714;2023-05-10T16:13:48;4.88;;;3.85;;
22786;SDS011;63134;52.020;4.714;2023-05-10T16:16:34;7.50;;;4.60;;
22786;SDS011;63134;52.020;4.714;2023-05-10T16:19:19;6.28;;;4.63;;
22786;SDS011;63134;52.020;4.714;2023-05-10T16:22:05;5.10;;;4.55;;
22786;SDS011;63134;52.020;4.714;2023-05-10T16:24:51;5.35;;;4.63;;
22786;SDS011;63134;52.020;4.714;2023-05-10T16:27:41;6.40;;;4.78;;
22786;SDS011;63134;52.020;4.714;2023-05-10T16:30:27;4.80;;;4.20;;
22786;SDS011;63134;52.020;4.714;2023-05-10T16:33:14;7.38;;;4.05;;
22786;SDS011;63134;52.020;4.714;2023-05-10T16:36:00;4.80;;;4.30;;
22786;SDS011;63134;52.020;4.714;2023-05-10T16:38:45;5.25;;;4.30;;
22786;SDS011;63134;52.020;4.714;2023-05-10T16:41:31;6.45;;;4.18;;
22786;SDS011;63134;52.020;4.714;2023-05-10T16:44:18;6.63;;;4.63;;
22786;SDS011;63134;52.020;4.714;2023-05-10T16:47:05;5.82;;;4.70;;
22786;SDS011;63134;52.020;4.714;2023-05-10T16:49:51;7.38;;;4.60;;
22786;SDS011;63134;52.020;4.714;2023-05-10T16:52:36;6.35;;;5.40;;
22786;SDS011;63134;52.020;4.714;2023-05-10T16:55:22;8.00;;;6.80;;
22786;SDS011;63134;52.020;4.714;2023-05-10T16:58:10;7.43;;;6.57;;